sensor_id;sensor_type;location;lat;lon;timestamp;pressure;altitude;pressure_sealevel;temperature;humidity
64679;BME280;51094;53.864;27.676;2024-02-14T00:01:21;99211.09;;;3.29;84.47
64679;BME280;51094;53.864;27.676;2024-02-14T00:03:49;99232.69;;;3.46;84.42
64679;BME280;51094;53.864;27.676;2024-02-14T00:06:16;99210.84;;;3.36;84.16
64679;BME280;51094;53.864;27.676;2024-02-14T00:08:43;99239.09;;;3.56;84.61
64679;BME280;51094;53.864;27.676;2024-02-14T00:11:10;99238.31;;;3.54;84.49
64679;BME280;51094;53.864;27.676;2024-02-14T00:13:38;99201.53;;;3.33;84.91
64679;BME280;51094;53.864;27.676;2024-02-14T00:16:07;99225.03;;;3.44;84.56
64679;BME280;51094;53.864;27.676;2024-02-14T00:18:37;99239.09;;;3.56;84.28
64679;BME280;51094;53.864;27.676;2024-02-14T00:21:08;99249.50;;;3.53;84.07
64679;BME280;51094;53.864;27.676;2024-02-14T00:23:35;99247.97;;;3.49;83.87
64679;BME280;51094;53.864;27.676;2024-02-14T00:26:02;99239.81;;;3.39;84.36
64679;BME280;51094;53.864;27.676;2024-02-14T00:28:29;99198.09;;;3.12;84.53
64679;BME280;51094;53.864;27.676;2024-02-14T00:31:00;99240.84;;;3.35;83.84
64679;BME280;51094;53.864;27.676;2024-02-14T00:33:28;99222.34;;;3.27;84.00
64679;BME280;51094;53.864;27.676;2024-02-14T00:35:55;99220.78;;;3.23;84.26
64679;BME280;51094;53.864;27.676;2024-02-14T00:38:22;99230.28;;;3.21;84.09
64679;BME280;51094;53.864;27.676;2024-02-14T00:40:49;99214.03;;;3.20;84.80
64679;BME280;51094;53.864;27.676;2024-02-14T00:43:16;99247.47;;;3.41;84.58
64679;BME280;51094;53.864;27.676;2024-02-14T00:45:43;99135.34;;;2.57;83.78
64679;BME280;51094;53.864;27.676;2024-02-14T00:48:15;99235.66;;;3.37;84.02
64679;BME280;51094;53.864;27.676;2024-02-14T00:50:43;99245.72;;;3.41;84.26
64679;BME280;51094;53.864;27.676;2024-02-14T00:53:13;99245.28;;;3.31;84.09
64679;BME280;51094;53.864;27.676;2024-02-14T00:55:40;99234.97;;;3.11;84.14
64679;BME280;51094;53.864;27.676;2024-02-14T00:58:07;99205.22;;;3.06;83.38
64679;BME280;51094;53.864;27.676;2024-02-14T01:00:34;99214.94;;;3.19;84.25
64679;BME280;51094;53.864;27.676;2024-02-14T01:03:02;99235.91;;;3.30;83.55
64679;BME280;51094;53.864;27.676;2024-02-14T01:05:30;99243.28;;;3.38;84.09
64679;BME280;51094;53.864;27.676;2024-02-14T01:07:57;99209.97;;;3.15;83.85
64679;BME280;51094;53.864;27.676;2024-02-14T01:10:25;99206.34;;;3.00;83.47
64679;BME280;51094;53.864;27.676;2024-02-14T01:12:55;99245.88;;;3.38;84.01
64679;BME280;51094;53.864;27.676;2024-02-14T01:15:23;99230.88;;;3.27;83.76
64679;BME280;51094;53.864;27.676;2024-02-14T01:17:50;99251.13;;;3.35;83.46
64679;BME280;51094;53.864;27.676;2024-02-14T01:20:17;99228.56;;;3.21;83.30
64679;BME280;51094;53.864;27.676;2024-02-14T01:22:45;99234.97;;;3.11;83.05
64679;BME280;51094;53.864;27.676;2024-02-14T01:25:13;99253.59;;;3.16;82.98
64679;BME280;51094;53.864;27.676;2024-02-14T01:27:40;99256.28;;;3.13;83.50
64679;BME280;51094;53.864;27.676;2024-02-14T01:30:09;99237.03;;;3.03;83.42
64679;BME280;51094;53.864;27.676;2024-02-14T01:32:37;99270.69;;;3.17;83.58
64679;BME280;51094;53.864;27.676;2024-02-14T01:35:07;99260.78;;;3.08;83.54
64679;BME280;51094;53.864;27.676;2024-02-14T01:37:36;99247.81;;;3.11;83.71
64679;BME280;51094;53.864;27.676;2024-02-14T01:40:07;99277.78;;;3.32;83.93
64679;BME280;51094;53.864;27.676;2024-02-14T01:42:35;99083.28;;;2.11;82.91
64679;BME280;51094;53.864;27.676;2024-02-14T01:45:02;99275.59;;;3.23;83.13
64679;BME280;51094;53.864;27.676;2024-02-14T01:47:30;99303.38;;;3.14;83.29
64679;BME280;51094;53.864;27.676;2024-02-14T01:49:59;99243.38;;;2.94;82.85
64679;BME280;51094;53.864;27.676;2024-02-14T01:52:27;99283.53;;;3.17;83.00
64679;BME280;51094;53.864;27.676;2024-02-14T01:54:54;99287.78;;;3.18;82.86
64679;BME280;51094;53.864;27.676;2024-02-14T01:57:22;99287.91;;;3.15;82.75
64679;BME280;51094;53.864;27.676;2024-02-14T01:59:50;99278.00;;;3.06;83.35
64679;BME280;51094;53.864;27.676;2024-02-14T02:02:19;99286.41;;;3.10;83.29
64679;BME280;51094;53.864;27.676;2024-02-14T02:04:52;99293.69;;;3.20;83.53
64679;BME280;51094;53.864;27.676;2024-02-14T02:07:19;99299.72;;;3.19;82.75
64679;BME280;51094;53.864;27.676;2024-02-14T02:09:46;99293.16;;;3.12;82.45
64679;BME280;51094;53.864;27.676;2024-02-14T02:12:14;99303.44;;;3.12;82.79
64679;BME280;51094;53.864;27.676;2024-02-14T02:14:41;99304.41;;;3.10;82.64
64679;BME280;51094;53.864;27.676;2024-02-14T02:17:08;99304.63;;;3.04;82.83
64679;BME280;51094;53.864;27.676;2024-02-14T02:19:37;99303.63;;;3.08;82.70
64679;BME280;51094;53.864;27.676;2024-02-14T02:22:04;99301.31;;;3.02;82.22
64679;BME280;51094;53.864;27.676;2024-02-14T02:24:31;99306.56;;;2.98;82.63
64679;BME280;51094;53.864;27.676;2024-02-14T02:26:59;99253.63;;;2.73;82.42
64679;BME280;51094;53.864;27.676;2024-02-14T02:29:31;99175.13;;;2.23;82.81
64679;BME280;51094;53.864;27.676;2024-02-14T02:32:01;99312.34;;;3.04;82.87
64679;BME280;51094;53.864;27.676;2024-02-14T02:34:28;99312.09;;;3.10;83.26
64679;BME280;51094;53.864;27.676;2024-02-14T02:36:56;99295.34;;;3.01;82.71
64679;BME280;51094;53.864;27.676;2024-02-14T02:39:23;99312.94;;;3.10;82.79
64679;BME280;51094;53.864;27.676;2024-02-14T02:41:50;99285.53;;;2.89;82.66
64679;BME280;51094;53.864;27.676;2024-02-14T02:44:17;99264.56;;;2.78;83.06
64679;BME280;51094;53.864;27.676;2024-02-14T02:46:44;99262.97;;;2.75;82.52
64679;BME280;51094;53.864;27.676;2024-02-14T02:49:12;99306.63;;;2.97;82.42
64679;BME280;51094;53.864;27.676;2024-02-14T02:51:41;99325.91;;;3.07;82.59
64679;BME280;51094;53.864;27.676;2024-02-14T02:54:09;99274.97;;;2.75;82.47
64679;BME280;51094;53.864;27.676;2024-02-14T02:56:40;99323.16;;;3.12;82.84
64679;BME280;51094;53.864;27.676;2024-02-14T02:59:10;99315.19;;;2.97;82.70
64679;BME280;51094;53.864;27.676;2024-02-14T03:01:37;99284.09;;;2.60;82.32
64679;BME280;51094;53.864;27.676;2024-02-14T03:04:04;99332.97;;;3.02;82.59
64679;BME280;51094;53.864;27.676;2024-02-14T03:06:31;99326.84;;;3.05;83.20
64679;BME280;51094;53.864;27.676;2024-02-14T03:08:59;99336.19;;;3.07;82.22
64679;BME280;51094;53.864;27.676;2024-02-14T03:11:27;99341.69;;;2.98;82.40
64679;BME280;51094;53.864;27.676;2024-02-14T03:13:54;99336.97;;;2.87;82.83
64679;BME280;51094;53.864;27.676;2024-02-14T03:16:21;99357.22;;;2.95;82.68
64679;BME280;51094;53.864;27.676;2024-02-14T03:18:51;99356.00;;;3.04;82.80
64679;BME280;51094;53.864;27.676;2024-02-14T03:21:23;99359.34;;;3.06;82.42
64679;BME280;51094;53.864;27.676;2024-02-14T03:23:52;99214.66;;;2.18;82.59
64679;BME280;51094;53.864;27.676;2024-02-14T03:26:21;99289.94;;;2.63;82.25
64679;BME280;51094;53.864;27.676;2024-02-14T03:28:50;99337.84;;;2.86;82.50
64679;BME280;51094;53.864;27.676;2024-02-14T03:31:19;99321.97;;;2.77;83.11
64679;BME280;51094;53.864;27.676;2024-02-14T03:33:49;99271.66;;;2.49;82.74
64679;BME280;51094;53.864;27.676;2024-02-14T03:36:16;99355.34;;;2.77;82.08
64679;BME280;51094;53.864;27.676;2024-02-14T03:38:43;99347.88;;;2.71;82.92
64679;BME280;51094;53.864;27.676;2024-02-14T03:41:13;99363.94;;;2.76;83.19
64679;BME280;51094;53.864;27.676;2024-02-14T03:43:40;99368.00;;;2.81;83.28
64679;BME280;51094;53.864;27.676;2024-02-14T03:46:07;99340.94;;;2.73;83.38
64679;BME280;51094;53.864;27.676;2024-02-14T03:48:34;99369.19;;;2.96;83.23
64679;BME280;51094;53.864;27.676;2024-02-14T03:51:02;99377.78;;;2.95;83.30
64679;BME280;51094;53.864;27.676;2024-02-14T03:53:32;99346.75;;;2.78;82.91
64679;BME280;51094;53.864;27.676;2024-02-14T03:56:00;99299.00;;;2.50;83.22
64679;BME280;51094;53.864;27.676;2024-02-14T03:58:27;99368.56;;;2.89;82.76
64679;BME280;51094;53.864;27.676;2024-02-14T04:00:56;99357.91;;;2.77;82.96
64679;BME280;51094;53.864;27.676;2024-02-14T04:03:23;99369.91;;;2.76;82.62
64679;BME280;51094;53.864;27.676;2024-02-14T04:05:53;99313.63;;;2.25;82.82
64679;BME280;51094;53.864;27.676;2024-02-14T04:08:21;99365.75;;;2.50;83.22
64679;BME280;51094;53.864;27.676;2024-02-14T04:10:48;99347.94;;;2.46;83.51
64679;BME280;51094;53.864;27.676;2024-02-14T04:13:20;99318.63;;;2.28;83.37
64679;BME280;51094;53.864;27.676;2024-02-14T04:15:47;99374.53;;;2.66;83.51
64679;BME280;51094;53.864;27.676;2024-02-14T04:18:15;99378.91;;;2.64;83.29
64679;BME280;51094;53.864;27.676;2024-02-14T04:20:45;99389.34;;;2.60;83.07
64679;BME280;51094;53.864;27.676;2024-02-14T04:23:12;99353.63;;;2.30;83.32
64679;BME280;51094;53.864;27.676;2024-02-14T04:25:39;99389.41;;;2.58;83.39
64679;BME280;51094;53.864;27.676;2024-02-14T04:28:09;99383.03;;;2.45;83.31
64679;BME280;51094;53.864;27.676;2024-02-14T04:30:40;99411.50;;;2.62;83.52
64679;BME280;51094;53.864;27.676;2024-02-14T04:33:08;99405.66;;;2.59;83.26
64679;BME280;51094;53.864;27.676;2024-02-14T04:35:43;99413.16;;;2.63;83.54
64679;BME280;51094;53.864;27.676;2024-02-14T04:38:11;99421.53;;;2.68;83.55
64679;BME280;51094;53.864;27.676;2024-02-14T04:40:38;99418.06;;;2.70;83.30
64679;BME280;51094;53.864;27.676;2024-02-14T04:43:05;99418.75;;;2.75;82.84
64679;BME280;51094;53.864;27.676;2024-02-14T04:45:32;99357.75;;;2.34;83.06
64679;BME280;51094;53.864;27.676;2024-02-14T04:47:59;99425.78;;;2.70;82.78
64679;BME280;51094;53.864;27.676;2024-02-14T04:50:27;99429.13;;;2.72;82.82
64679;BME280;51094;53.864;27.676;2024-02-14T04:52:54;99333.03;;;2.09;82.59
64679;BME280;51094;53.864;27.676;2024-02-14T04:55:23;99397.66;;;2.43;82.09
64679;BME280;51094;53.864;27.676;2024-02-14T04:57:50;99425.78;;;2.46;82.12
64679;BME280;51094;53.864;27.676;2024-02-14T05:00:17;99430.91;;;2.46;82.34
64679;BME280;51094;53.864;27.676;2024-02-14T05:02:45;99393.25;;;2.22;82.47
64679;BME280;51094;53.864;27.676;2024-02-14T05:05:17;99420.13;;;2.37;82.80
64679;BME280;51094;53.864;27.676;2024-02-14T05:07:49;99424.78;;;2.50;82.38
64679;BME280;51094;53.864;27.676;2024-02-14T05:10:16;99392.47;;;2.20;82.38
64679;BME280;51094;53.864;27.676;2024-02-14T05:12:45;99441.06;;;2.49;82.12
64679;BME280;51094;53.864;27.676;2024-02-14T05:15:13;99442.66;;;2.53;82.63
64679;BME280;51094;53.864;27.676;2024-02-14T05:17:46;99419.50;;;2.30;81.64
64679;BME280;51094;53.864;27.676;2024-02-14T05:20:16;99398.69;;;2.14;82.11
64679;BME280;51094;53.864;27.676;2024-02-14T05:22:43;99437.03;;;2.42;82.49
64679;BME280;51094;53.864;27.676;2024-02-14T05:25:10;99449.66;;;2.48;82.17
64679;BME280;51094;53.864;27.676;2024-02-14T05:27:40;99452.22;;;2.48;82.23
64679;BME280;51094;53.864;27.676;2024-02-14T05:30:13;99445.78;;;2.37;81.80
64679;BME280;51094;53.864;27.676;2024-02-14T05:32:41;99429.28;;;2.19;82.02
64679;BME280;51094;53.864;27.676;2024-02-14T05:35:10;99412.50;;;2.10;82.51
64679;BME280;51094;53.864;27.676;2024-02-14T05:37:37;99458.16;;;2.50;82.28
64679;BME280;51094;53.864;27.676;2024-02-14T05:40:09;99455.59;;;2.50;82.06
64679;BME280;51094;53.864;27.676;2024-02-14T05:42:36;99457.94;;;2.56;82.18
64679;BME280;51094;53.864;27.676;2024-02-14T05:45:03;99476.41;;;2.66;81.84
64679;BME280;51094;53.864;27.676;2024-02-14T05:47:31;99478.25;;;2.62;81.69
64679;BME280;51094;53.864;27.676;2024-02-14T05:49:58;99279.13;;;1.36;81.40
64679;BME280;51094;53.864;27.676;2024-02-14T05:52:31;99475.44;;;2.45;81.29
64679;BME280;51094;53.864;27.676;2024-02-14T05:54:58;99488.69;;;2.58;81.61
64679;BME280;51094;53.864;27.676;2024-02-14T05:57:25;99466.13;;;2.43;81.75
64679;BME280;51094;53.864;27.676;2024-02-14T05:59:53;99495.31;;;2.63;81.39
64679;BME280;51094;53.864;27.676;2024-02-14T06:02:23;99430.16;;;2.18;80.94
64679;BME280;51094;53.864;27.676;2024-02-14T06:04:52;99460.72;;;2.50;81.55
64679;BME280;51094;53.864;27.676;2024-02-14T06:07:19;99476.56;;;2.61;81.28
64679;BME280;51094;53.864;27.676;2024-02-14T06:09:46;99497.41;;;2.77;81.20
64679;BME280;51094;53.864;27.676;2024-02-14T06:12:13;99488.41;;;2.65;80.54
64679;BME280;51094;53.864;27.676;2024-02-14T06:14:40;99464.75;;;2.32;80.46
64679;BME280;51094;53.864;27.676;2024-02-14T06:17:07;99487.47;;;2.68;80.67
64679;BME280;51094;53.864;27.676;2024-02-14T06:19:34;99508.63;;;2.75;80.85
64679;BME280;51094;53.864;27.676;2024-02-14T06:22:06;99478.28;;;2.61;80.67
64679;BME280;51094;53.864;27.676;2024-02-14T06:24:34;99528.69;;;2.88;80.48
64679;BME280;51094;53.864;27.676;2024-02-14T06:27:01;99465.69;;;2.55;80.25
64679;BME280;51094;53.864;27.676;2024-02-14T06:29:28;99363.47;;;1.93;79.85
64679;BME280;51094;53.864;27.676;2024-02-14T06:31:55;99479.13;;;2.61;80.10
64679;BME280;51094;53.864;27.676;2024-02-14T06:34:22;99479.06;;;2.63;80.43
64679;BME280;51094;53.864;27.676;2024-02-14T06:36:52;99530.94;;;2.97;79.96
64679;BME280;51094;53.864;27.676;2024-02-14T06:39:28;99383.94;;;1.94;79.06
64679;BME280;51094;53.864;27.676;2024-02-14T06:41:58;99332.22;;;1.57;79.23
64679;BME280;51094;53.864;27.676;2024-02-14T06:44:26;99513.41;;;2.60;79.06
64679;BME280;51094;53.864;27.676;2024-02-14T06:46:58;99525.44;;;2.60;79.07
64679;BME280;51094;53.864;27.676;2024-02-14T06:49:25;99542.50;;;2.86;79.62
64679;BME280;51094;53.864;27.676;2024-02-14T06:51:52;99543.13;;;2.92;79.43
64679;BME280;51094;53.864;27.676;2024-02-14T06:54:19;99549.00;;;2.96;79.57
64679;BME280;51094;53.864;27.676;2024-02-14T06:56:46;99550.66;;;2.97;78.70
64679;BME280;51094;53.864;27.676;2024-02-14T06:59:13;99543.31;;;2.86;78.25
64679;BME280;51094;53.864;27.676;2024-02-14T07:01:42;99545.94;;;2.85;79.03
64679;BME280;51094;53.864;27.676;2024-02-14T07:04:09;99533.31;;;2.79;78.76
64679;BME280;51094;53.864;27.676;2024-02-14T07:06:36;99363.16;;;1.77;78.12
64679;BME280;51094;53.864;27.676;2024-02-14T07:09:04;99552.59;;;2.65;78.27
64679;BME280;51094;53.864;27.676;2024-02-14T07:11:31;99565.72;;;2.83;78.35
64679;BME280;51094;53.864;27.676;2024-02-14T07:13:58;99544.47;;;2.78;78.47
64679;BME280;51094;53.864;27.676;2024-02-14T07:16:30;99463.94;;;2.30;78.36
64679;BME280;51094;53.864;27.676;2024-02-14T07:18:57;99552.88;;;2.83;78.00
64679;BME280;51094;53.864;27.676;2024-02-14T07:21:24;99560.38;;;2.89;78.06
64679;BME280;51094;53.864;27.676;2024-02-14T07:23:51;99561.88;;;2.94;78.07
64679;BME280;51094;53.864;27.676;2024-02-14T07:26:23;99544.16;;;2.87;77.92
64679;BME280;51094;53.864;27.676;2024-02-14T07:28:50;99556.59;;;2.99;78.04
64679;BME280;51094;53.864;27.676;2024-02-14T07:31:20;99526.41;;;2.81;76.97
64679;BME280;51094;53.864;27.676;2024-02-14T07:33:59;99562.78;;;2.93;77.35
64679;BME280;51094;53.864;27.676;2024-02-14T07:36:26;99513.19;;;2.66;77.37
64679;BME280;51094;53.864;27.676;2024-02-14T07:38:59;99527.50;;;2.74;77.09
64679;BME280;51094;53.864;27.676;2024-02-14T07:41:26;99406.13;;;1.95;76.70
64679;BME280;51094;53.864;27.676;2024-02-14T07:43:53;99534.84;;;2.84;76.75
64679;BME280;51094;53.864;27.676;2024-02-14T07:46:20;99547.53;;;2.89;76.35
64679;BME280;51094;53.864;27.676;2024-02-14T07:48:51;99552.81;;;2.84;76.57
64679;BME280;51094;53.864;27.676;2024-02-14T07:51:21;99602.03;;;2.97;76.80
64679;BME280;51094;53.864;27.676;2024-02-14T07:53:53;99567.66;;;3.01;76.71
64679;BME280;51094;53.864;27.676;2024-02-14T07:56:27;99543.00;;;2.95;76.44
64679;BME280;51094;53.864;27.676;2024-02-14T07:58:57;99537.03;;;2.95;76.57
64679;BME280;51094;53.864;27.676;2024-02-14T08:01:26;99571.19;;;3.22;76.60
64679;BME280;51094;53.864;27.676;2024-02-14T08:03:59;99588.91;;;3.29;76.55
64679;BME280;51094;53.864;27.676;2024-02-14T08:06:29;99562.94;;;3.12;76.23
64679;BME280;51094;53.864;27.676;2024-02-14T08:08:59;99575.53;;;3.20;75.98
64679;BME280;51094;53.864;27.676;2024-02-14T08:11:29;99585.53;;;3.27;77.01
64679;BME280;51094;53.864;27.676;2024-02-14T08:13:57;99544.53;;;3.01;76.35
64679;BME280;51094;53.864;27.676;2024-02-14T08:16:26;99591.41;;;3.31;76.63
64679;BME280;51094;53.864;27.676;2024-02-14T08:18:56;99582.13;;;3.27;75.76
64679;BME280;51094;53.864;27.676;2024-02-14T08:21:28;99573.06;;;3.17;75.39
64679;BME280;51094;53.864;27.676;2024-02-14T08:23:58;99592.19;;;3.33;76.26
64679;BME280;51094;53.864;27.676;2024-02-14T08:26:30;99587.91;;;3.33;76.25
64679;BME280;51094;53.864;27.676;2024-02-14T08:28:58;99534.78;;;3.09;75.72
64679;BME280;51094;53.864;27.676;2024-02-14T08:31:29;99593.13;;;3.54;76.13
64679;BME280;51094;53.864;27.676;2024-02-14T08:33:56;99600.06;;;3.52;76.21
64679;BME280;51094;53.864;27.676;2024-02-14T08:36:24;99600.75;;;3.57;75.61
64679;BME280;51094;53.864;27.676;2024-02-14T08:38:54;99587.00;;;3.34;75.48
64679;BME280;51094;53.864;27.676;2024-02-14T08:41:22;99516.31;;;2.99;75.69
64679;BME280;51094;53.864;27.676;2024-02-14T08:43:50;99602.88;;;3.46;75.40
64679;BME280;51094;53.864;27.676;2024-02-14T08:46:23;99622.03;;;3.60;76.07
64679;BME280;51094;53.864;27.676;2024-02-14T08:48:53;99618.91;;;3.52;75.26
64679;BME280;51094;53.864;27.676;2024-02-14T08:51:23;99618.94;;;3.51;75.79
64679;BME280;51094;53.864;27.676;2024-02-14T08:53:50;99553.63;;;3.10;75.74
64679;BME280;51094;53.864;27.676;2024-02-14T08:56:24;99607.28;;;3.42;76.00
64679;BME280;51094;53.864;27.676;2024-02-14T08:58:51;99597.22;;;3.36;75.64
64679;BME280;51094;53.864;27.676;2024-02-14T09:01:18;99599.00;;;3.57;76.44
64679;BME280;51094;53.864;27.676;2024-02-14T09:03:47;99612.25;;;3.47;75.26
64679;BME280;51094;53.864;27.676;2024-02-14T09:06:17;99640.19;;;3.56;76.03
64679;BME280;51094;53.864;27.676;2024-02-14T09:08:48;99638.19;;;3.64;76.01
64679;BME280;51094;53.864;27.676;2024-02-14T09:11:18;99635.72;;;3.61;75.83
64679;BME280;51094;53.864;27.676;2024-02-14T09:13:45;99604.03;;;3.37;76.22
64679;BME280;51094;53.864;27.676;2024-02-14T09:16:16;99597.50;;;3.28;75.87
64679;BME280;51094;53.864;27.676;2024-02-14T09:18:45;99643.94;;;3.47;76.34
64679;BME280;51094;53.864;27.676;2024-02-14T09:21:15;99642.28;;;3.46;76.17
64679;BME280;51094;53.864;27.676;2024-02-14T09:23:47;99641.38;;;3.47;76.72
64679;BME280;51094;53.864;27.676;2024-02-14T09:26:17;99642.16;;;3.49;76.20
64679;BME280;51094;53.864;27.676;2024-02-14T09:28:44;99631.75;;;3.29;77.03
64679;BME280;51094;53.864;27.676;2024-02-14T09:31:18;99655.50;;;3.36;77.15
64679;BME280;51094;53.864;27.676;2024-02-14T09:33:53;99599.31;;;3.02;77.79
64679;BME280;51094;53.864;27.676;2024-02-14T09:36:25;99655.31;;;3.42;77.61
64679;BME280;51094;53.864;27.676;2024-02-14T09:38:55;99650.16;;;3.42;77.31
64679;BME280;51094;53.864;27.676;2024-02-14T09:41:38;99653.09;;;3.31;77.16
64679;BME280;51094;53.864;27.676;2024-02-14T09:44:07;99659.88;;;3.33;77.40
64679;BME280;51094;53.864;27.676;2024-02-14T09:46:37;99649.63;;;3.32;77.25
64679;BME280;51094;53.864;27.676;2024-02-14T09:49:06;99696.63;;;3.36;77.53
64679;BME280;51094;53.864;27.676;2024-02-14T09:51:34;99674.63;;;3.52;77.94
64679;BME280;51094;53.864;27.676;2024-02-14T09:54:02;99666.59;;;3.61;77.92
64679;BME280;51094;53.864;27.676;2024-02-14T09:56:30;99662.84;;;3.70;77.71
64679;BME280;51094;53.864;27.676;2024-02-14T09:58:59;99666.66;;;3.83;77.75
64679;BME280;51094;53.864;27.676;2024-02-14T10:01:29;99626.00;;;3.69;77.49
64679;BME280;51094;53.864;27.676;2024-02-14T10:03:56;99643.75;;;3.77;77.43
64679;BME280;51094;53.864;27.676;2024-02-14T10:06:27;99614.28;;;3.85;77.73
64679;BME280;51094;53.864;27.676;2024-02-14T10:08:57;99643.44;;;4.29;77.41
64679;BME280;51094;53.864;27.676;2024-02-14T10:11:31;99642.50;;;4.32;77.31
64679;BME280;51094;53.864;27.676;2024-02-14T10:14:04;99644.91;;;4.35;77.03
64679;BME280;51094;53.864;27.676;2024-02-14T10:16:36;99666.66;;;4.50;76.72
64679;BME280;51094;53.864;27.676;2024-02-14T10:19:03;99599.31;;;4.17;76.04
64679;BME280;51094;53.864;27.676;2024-02-14T10:21:31;99654.50;;;4.53;75.69
64679;BME280;51094;53.864;27.676;2024-02-14T10:24:02;99580.53;;;4.15;75.91
64679;BME280;51094;53.864;27.676;2024-02-14T10:26:29;99659.19;;;4.86;75.90
64679;BME280;51094;53.864;27.676;2024-02-14T10:28:57;99613.53;;;4.69;75.21
64679;BME280;51094;53.864;27.676;2024-02-14T10:31:28;99616.75;;;4.94;75.75
64679;BME280;51094;53.864;27.676;2024-02-14T10:33:56;99630.53;;;5.14;75.06
64679;BME280;51094;53.864;27.676;2024-02-14T10:36:26;99645.78;;;5.39;74.48
64679;BME280;51094;53.864;27.676;2024-02-14T10:38:57;99494.69;;;4.56;74.24
64679;BME280;51094;53.864;27.676;2024-02-14T10:41:30;99643.75;;;5.06;72.69
64679;BME280;51094;53.864;27.676;2024-02-14T10:44:05;99606.09;;;4.61;71.29
64679;BME280;51094;53.864;27.676;2024-02-14T10:46:32;99660.09;;;4.85;72.60
64679;BME280;51094;53.864;27.676;2024-02-14T10:49:04;99664.00;;;4.73;73.34
64679;BME280;51094;53.864;27.676;2024-02-14T10:51:34;99658.03;;;4.73;73.18
64679;BME280;51094;53.864;27.676;2024-02-14T10:54:10;99635.09;;;4.87;74.58
64679;BME280;51094;53.864;27.676;2024-02-14T10:56:41;99643.97;;;5.41;73.94
64679;BME280;51094;53.864;27.676;2024-02-14T10:59:16;99659.94;;;5.88;74.22
64679;BME280;51094;53.864;27.676;2024-02-14T11:01:46;99633.31;;;6.06;73.31
64679;BME280;51094;53.864;27.676;2024-02-14T11:04:14;99659.66;;;6.13;72.11
64679;BME280;51094;53.864;27.676;2024-02-14T11:06:48;99617.38;;;5.59;70.48
64679;BME280;51094;53.864;27.676;2024-02-14T11:09:20;99654.88;;;5.66;70.65
64679;BME280;51094;53.864;27.676;2024-02-14T11:11:58;99667.13;;;5.42;69.69
64679;BME280;51094;53.864;27.676;2024-02-14T11:14:31;99633.03;;;4.95;70.56
64679;BME280;51094;53.864;27.676;2024-02-14T11:17:02;99639.28;;;4.89;69.88
64679;BME280;51094;53.864;27.676;2024-02-14T11:19:31;99643.59;;;4.68;71.03
64679;BME280;51094;53.864;27.676;2024-02-14T11:22:17;99648.63;;;4.72;71.34
64679;BME280;51094;53.864;27.676;2024-02-14T11:24:49;99649.75;;;4.64;71.35
64679;BME280;51094;53.864;27.676;2024-02-14T11:27:19;99667.63;;;4.69;71.37
64679;BME280;51094;53.864;27.676;2024-02-14T11:30:00;99603.44;;;4.21;71.51
64679;BME280;51094;53.864;27.676;2024-02-14T11:32:31;99681.34;;;4.70;71.92
64679;BME280;51094;53.864;27.676;2024-02-14T11:35:02;99676.19;;;4.70;71.08
64679;BME280;51094;53.864;27.676;2024-02-14T11:37:33;99665.53;;;4.57;70.43
64679;BME280;51094;53.864;27.676;2024-02-14T11:40:04;99678.56;;;4.52;71.10
64679;BME280;51094;53.864;27.676;2024-02-14T11:42:34;99667.00;;;4.41;71.20
64679;BME280;51094;53.864;27.676;2024-02-14T11:45:02;99548.06;;;3.67;71.57
64679;BME280;51094;53.864;27.676;2024-02-14T11:47:31;99603.25;;;4.04;71.53
64679;BME280;51094;53.864;27.676;2024-02-14T11:50:00;99620.44;;;4.03;70.70
64679;BME280;51094;53.864;27.676;2024-02-14T11:52:29;99680.78;;;4.18;70.19
64679;BME280;51094;53.864;27.676;2024-02-14T11:54:59;99637.66;;;3.79;70.33
64679;BME280;51094;53.864;27.676;2024-02-14T11:57:26;99687.50;;;4.22;70.63
64679;BME280;51094;53.864;27.676;2024-02-14T11:59:57;99680.31;;;4.30;71.73
64679;BME280;51094;53.864;27.676;2024-02-14T12:02:26;99673.97;;;4.39;71.28
64679;BME280;51094;53.864;27.676;2024-02-14T12:04:55;99620.25;;;4.08;70.66
64679;BME280;51094;53.864;27.676;2024-02-14T12:07:26;99656.84;;;4.16;71.09
64679;BME280;51094;53.864;27.676;2024-02-14T12:09:57;99659.75;;;4.07;70.87
64679;BME280;51094;53.864;27.676;2024-02-14T12:12:27;99697.50;;;4.29;70.76
64679;BME280;51094;53.864;27.676;2024-02-14T12:14:55;99718.41;;;4.44;71.44
64679;BME280;51094;53.864;27.676;2024-02-14T12:17:28;99674.00;;;4.37;70.89
64679;BME280;51094;53.864;27.676;2024-02-14T12:20:09;99679.16;;;4.37;70.53
64679;BME280;51094;53.864;27.676;2024-02-14T12:22:38;99695.22;;;4.44;70.58
64679;BME280;51094;53.864;27.676;2024-02-14T12:25:08;99692.94;;;4.36;70.23
64679;BME280;51094;53.864;27.676;2024-02-14T12:27:40;99693.88;;;4.33;70.32
64679;BME280;51094;53.864;27.676;2024-02-14T12:30:14;99679.00;;;4.20;70.09
64679;BME280;51094;53.864;27.676;2024-02-14T12:32:41;99703.28;;;4.34;70.03
64679;BME280;51094;53.864;27.676;2024-02-14T12:35:14;99711.00;;;4.34;70.13
64679;BME280;51094;53.864;27.676;2024-02-14T12:37:41;99718.00;;;4.32;70.25
64679;BME280;51094;53.864;27.676;2024-02-14T12:40:08;99696.91;;;4.23;70.15
64679;BME280;51094;53.864;27.676;2024-02-14T12:42:40;99615.06;;;3.64;70.25
64679;BME280;51094;53.864;27.676;2024-02-14T12:45:11;99669.94;;;3.63;70.13
64679;BME280;51094;53.864;27.676;2024-02-14T12:47:42;99723.53;;;3.98;69.34
64679;BME280;51094;53.864;27.676;2024-02-14T12:50:10;99666.91;;;3.52;70.15
64679;BME280;51094;53.864;27.676;2024-02-14T12:52:39;99733.25;;;3.90;70.26
64679;BME280;51094;53.864;27.676;2024-02-14T12:55:11;99715.81;;;3.75;70.93
64679;BME280;51094;53.864;27.676;2024-02-14T12:57:39;99723.53;;;3.98;71.20
64679;BME280;51094;53.864;27.676;2024-02-14T13:00:07;99654.84;;;3.54;70.78
64679;BME280;51094;53.864;27.676;2024-02-14T13:02:37;99728.34;;;4.08;70.76
64679;BME280;51094;53.864;27.676;2024-02-14T13:05:14;99696.84;;;4.01;70.00
64679;BME280;51094;53.864;27.676;2024-02-14T13:07:44;99732.03;;;4.24;70.55
64679;BME280;51094;53.864;27.676;2024-02-14T13:10:19;99721.78;;;4.22;71.26